Time;durP1;ratioP1;P1;durP2;ratioP2;P2;SDS_P1;SDS_P2;PMS_P1;PMS_P2;Temp;Humidity;BMP_temperature;BMP_pressure;BME280_temperature;BME280_humidity;BME280_pressure;Samples;Min_cycle;Max_cycle;Signal;HPM_P1;HPM_P2
2023/12/29 00:00:31;;;;;;;3.25;2.72;;;;;;;;;;4917570;29;20092;-67
2023/12/29 00:02:57;;;;;;;4.47;2.60;;;;;;;;;;4917576;29;20031;-67
2023/12/29 00:05:22;;;;;;;4.10;2.78;;;;;;;;;;4917745;29;20028;-67
2023/12/29 00:07:48;;;;;;;2.95;2.53;;;;;;;;;;4917604;29;20052;-66
2023/12/29 00:10:13;;;;;;;6.28;2.90;;;;;;;;;;4917690;29;20174;-67
2023/12/29 00:12:39;;;;;;;4.35;3.42;;;;;;;;;;4917435;29;20088;-67
2023/12/29 00:15:05;;;;;;;3.08;2.72;;;;;;;;;;4917615;29;20449;-67
2023/12/29 00:17:32;;;;;;;3.53;2.80;;;;;;;;;;4917254;29;20107;-67
2023/12/29 00:19:57;;;;;;;3.25;2.78;;;;;;;;;;4917154;29;20028;-67
2023/12/29 00:22:25;;;;;;;3.58;2.80;;;;;;;;;;4917768;29;20497;-67
2023/12/29 00:24:50;;;;;;;3.42;2.55;;;;;;;;;;4917229;29;20039;-67
2023/12/29 00:27:16;;;;;;;3.35;2.65;;;;;;;;;;4917459;29;20036;-67
2023/12/29 00:29:42;;;;;;;4.10;2.72;;;;;;;;;;4917090;29;20067;-67
2023/12/29 00:32:08;;;;;;;4.05;2.47;;;;;;;;;;4917278;29;20119;-67
2023/12/29 00:34:34;;;;;;;5.50;2.80;;;;;;;;;;4917352;29;20036;-67
2023/12/29 00:36:59;;;;;;;3.45;2.75;;;;;;;;;;4916829;29;20482;-67
2023/12/29 00:39:29;;;;;;;3.22;2.70;;;;;;;;;;4917026;29;20115;-67
2023/12/29 00:41:58;;;;;;;4.15;2.75;;;;;;;;;;4916989;29;20028;-67
2023/12/29 00:44:24;;;;;;;2.53;2.33;;;;;;;;;;4917146;29;20040;-67
2023/12/29 00:46:50;;;;;;;2.83;2.50;;;;;;;;;;4916830;29;20033;-67
2023/12/29 00:49:15;;;;;;;3.38;2.75;;;;;;;;;;4916806;29;20051;-67
2023/12/29 00:51:41;;;;;;;3.42;3.05;;;;;;;;;;4916822;29;20667;-67
2023/12/29 00:54:07;;;;;;;5.28;2.65;;;;;;;;;;4917337;29;20522;-62
2023/12/29 00:56:33;;;;;;;3.17;2.65;;;;;;;;;;4917167;29;20028;-66
2023/12/29 00:58:58;;;;;;;4.50;2.30;;;;;;;;;;4916530;29;20374;-67
2023/12/29 01:01:24;;;;;;;2.70;2.40;;;;;;;;;;4916756;29;20111;-67
2023/12/29 01:03:49;;;;;;;3.13;2.72;;;;;;;;;;4916585;29;20032;-66
2023/12/29 01:06:15;;;;;;;3.35;2.38;;;;;;;;;;4916618;29;20031;-67
2023/12/29 01:08:41;;;;;;;3.35;2.83;;;;;;;;;;4916506;29;20031;-67
2023/12/29 01:11:06;;;;;;;4.15;2.78;;;;;;;;;;4915984;29;20032;-70
2023/12/29 01:13:32;;;;;;;4.15;2.58;;;;;;;;;;4916569;29;20028;-66
2023/12/29 01:15:57;;;;;;;3.65;2.42;;;;;;;;;;4916432;29;20107;-66
2023/12/29 01:18:23;;;;;;;3.60;2.65;;;;;;;;;;4916384;29;20092;-67
2023/12/29 01:20:48;;;;;;;3.50;2.42;;;;;;;;;;4916222;29;20044;-67
2023/12/29 01:23:14;;;;;;;2.67;2.47;;;;;;;;;;4916368;29;20028;-67
2023/12/29 01:25:39;;;;;;;3.25;2.70;;;;;;;;;;4916310;29;20028;-67
2023/12/29 01:28:05;;;;;;;4.22;2.40;;;;;;;;;;4916904;29;20036;-67
2023/12/29 01:30:31;;;;;;;2.97;2.67;;;;;;;;;;4916277;29;20047;-67
2023/12/29 01:32:56;;;;;;;2.70;2.28;;;;;;;;;;4916565;29;20024;-66
2023/12/29 01:35:22;;;;;;;3.40;2.55;;;;;;;;;;4916438;29;20489;-66
2023/12/29 01:37:47;;;;;;;3.33;2.47;;;;;;;;;;4916097;29;20469;-67
2023/12/29 01:40:13;;;;;;;3.25;2.50;;;;;;;;;;4916182;29;20099;-66
2023/12/29 01:42:38;;;;;;;3.95;2.35;;;;;;;;;;4916444;29;20051;-66
2023/12/29 01:45:05;;;;;;;2.60;2.40;;;;;;;;;;4899332;29;20028;-66
2023/12/29 01:47:31;;;;;;;5.25;2.70;;;;;;;;;;4916139;29;20524;-67
2023/12/29 01:49:57;;;;;;;4.05;2.72;;;;;;;;;;4916100;29;20032;-66
2023/12/29 01:52:22;;;;;;;3.00;2.70;;;;;;;;;;4916067;29;20098;-67
2023/12/29 01:54:50;;;;;;;2.95;2.45;;;;;;;;;;4916089;29;20028;-67
2023/12/29 01:57:16;;;;;;;2.70;2.28;;;;;;;;;;4915947;29;20393;-66
2023/12/29 01:59:45;;;;;;;2.45;2.25;;;;;;;;;;4916097;29;20032;-66
2023/12/29 02:02:10;;;;;;;4.68;2.70;;;;;;;;;;4916002;29;20056;-67
2023/12/29 02:04:36;;;;;;;2.70;2.50;;;;;;;;;;4916023;29;20079;-67
2023/12/29 02:07:02;;;;;;;3.80;2.47;;;;;;;;;;4915986;29;20112;-67
2023/12/29 02:09:28;;;;;;;3.88;2.28;;;;;;;;;;4915978;29;20115;-67
2023/12/29 02:11:54;;;;;;;3.60;2.50;;;;;;;;;;4916146;29;20380;-67
2023/12/29 02:14:20;;;;;;;2.95;2.63;;;;;;;;;;4915906;29;20107;-67
2023/12/29 02:16:50;;;;;;;2.97;2.40;;;;;;;;;;4915886;29;20039;-67
2023/12/29 02:19:41;;;;;;;2.67;2.47;;;;;;;;;;4915895;29;20031;-67
2023/12/29 02:22:07;;;;;;;2.50;2.30;;;;;;;;;;4917727;29;20056;-70
2023/12/29 02:24:35;;;;;;;3.65;2.78;;;;;;;;;;4919311;29;20028;-72
2023/12/29 02:27:23;;;;;;;2.97;2.60;;;;;;;;;;4919262;29;20429;-72
2023/12/29 02:29:58;;;;;;;3.50;2.47;;;;;;;;;;4902292;29;20477;-72
2023/12/29 02:32:26;;;;;;;2.63;2.42;;;;;;;;;;4919298;29;20028;-73
2023/12/29 02:34:53;;;;;;;2.65;2.33;;;;;;;;;;4919202;29;20031;-73
2023/12/29 02:37:19;;;;;;;5.60;2.80;;;;;;;;;;4919087;29;20021;-72
2023/12/29 02:39:45;;;;;;;4.32;2.40;;;;;;;;;;4919415;29;20043;-71
2023/12/29 02:42:10;;;;;;;2.90;2.33;;;;;;;;;;4901805;29;20477;-71
2023/12/29 02:44:36;;;;;;;2.55;2.35;;;;;;;;;;4919009;29;20127;-72
2023/12/29 02:47:03;;;;;;;3.25;2.50;;;;;;;;;;4919180;29;20024;-72
2023/12/29 02:49:29;;;;;;;2.33;2.13;;;;;;;;;;4918847;29;20065;-72
2023/12/29 02:51:55;;;;;;;2.85;2.30;;;;;;;;;;4919331;29;20024;-71
2023/12/29 02:54:20;;;;;;;2.70;2.50;;;;;;;;;;4918845;29;20039;-72
2023/12/29 02:56:46;;;;;;;2.90;2.60;;;;;;;;;;4918754;29;20063;-72
2023/12/29 02:59:11;;;;;;;3.35;2.30;;;;;;;;;;4918713;29;20040;-73
2023/12/29 03:01:37;;;;;;;2.33;2.10;;;;;;;;;;4919070;29;20028;-72
2023/12/29 03:04:03;;;;;;;3.45;2.35;;;;;;;;;;4918692;29;20055;-72
2023/12/29 03:06:28;;;;;;;2.28;2.08;;;;;;;;;;4918604;29;20020;-72
2023/12/29 03:08:54;;;;;;;3.08;2.35;;;;;;;;;;4918609;29;20020;-72
2023/12/29 03:11:19;;;;;;;4.13;2.40;;;;;;;;;;4918749;29;20028;-72
2023/12/29 03:13:45;;;;;;;3.05;2.78;;;;;;;;;;4918608;29;20060;-73
2023/12/29 03:16:10;;;;;;;2.25;2.05;;;;;;;;;;4918426;29;20477;-73
2023/12/29 03:18:39;;;;;;;3.47;2.50;;;;;;;;;;4918381;29;20036;-73
2023/12/29 03:21:05;;;;;;;3.28;2.55;;;;;;;;;;4918186;29;20047;-73
2023/12/29 03:23:31;;;;;;;3.30;2.50;;;;;;;;;;4918386;29;20029;-66
2023/12/29 03:25:56;;;;;;;2.65;2.20;;;;;;;;;;4918406;29;20028;-66
2023/12/29 03:28:22;;;;;;;2.70;2.25;;;;;;;;;;4918398;29;20028;-66
2023/12/29 03:30:47;;;;;;;3.45;2.50;;;;;;;;;;4918674;29;20067;-70
2023/12/29 03:33:13;;;;;;;2.50;2.30;;;;;;;;;;4918250;29;20448;-66
2023/12/29 03:35:38;;;;;;;2.53;2.33;;;;;;;;;;4918113;29;20418;-66
2023/12/29 03:38:04;;;;;;;3.55;2.08;;;;;;;;;;4918016;29;20589;-66
2023/12/29 03:40:29;;;;;;;2.70;2.22;;;;;;;;;;4918323;29;20544;-67
2023/12/29 03:42:55;;;;;;;2.63;2.10;;;;;;;;;;4918274;29;20410;-66
2023/12/29 03:45:20;;;;;;;2.40;2.20;;;;;;;;;;4917990;29;20032;-66
2023/12/29 03:47:46;;;;;;;3.17;2.38;;;;;;;;;;4917933;29;20040;-66
2023/12/29 03:50:12;;;;;;;3.17;2.20;;;;;;;;;;4917891;29;20056;-66
2023/12/29 03:52:37;;;;;;;2.28;2.08;;;;;;;;;;4917843;29;20505;-67
2023/12/29 03:55:03;;;;;;;2.88;2.38;;;;;;;;;;4918026;29;20024;-66
2023/12/29 03:57:28;;;;;;;2.30;2.00;;;;;;;;;;4917656;29;20047;-66
2023/12/29 03:59:54;;;;;;;2.72;2.22;;;;;;;;;;4917752;29;20369;-71
2023/12/29 04:02:20;;;;;;;3.92;2.33;;;;;;;;;;4917567;29;20067;-66
2023/12/29 04:04:45;;;;;;;3.20;2.50;;;;;;;;;;4917680;29;20040;-66
2023/12/29 04:07:11;;;;;;;2.55;2.35;;;;;;;;;;4917797;29;20020;-66
2023/12/29 04:09:36;;;;;;;2.72;2.30;;;;;;;;;;4917536;29;20374;-66
2023/12/29 04:12:02;;;;;;;2.67;2.47;;;;;;;;;;4917461;29;20031;-66
2023/12/29 04:14:28;;;;;;;2.58;2.20;;;;;;;;;;4917467;29;20056;-66
2023/12/29 04:16:53;;;;;;;2.65;2.22;;;;;;;;;;4917636;29;20504;-66
2023/12/29 04:19:19;;;;;;;2.45;2.15;;;;;;;;;;4917286;29;20445;-66
2023/12/29 04:21:44;;;;;;;2.50;2.10;;;;;;;;;;4917200;29;20454;-67
2023/12/29 04:24:10;;;;;;;2.45;2.25;;;;;;;;;;4917528;29;20414;-65
2023/12/29 04:26:38;;;;;;;2.10;2.00;;;;;;;;;;4917399;29;20543;-66
2023/12/29 04:29:03;;;;;;;2.17;1.95;;;;;;;;;;4917585;29;20040;-66
2023/12/29 04:31:29;;;;;;;2.40;2.20;;;;;;;;;;4917426;29;20083;-66
2023/12/29 04:33:55;;;;;;;2.65;2.28;;;;;;;;;;4917043;29;20051;-66
2023/12/29 04:36:20;;;;;;;2.30;2.10;;;;;;;;;;4917036;29;20051;-66
2023/12/29 04:38:46;;;;;;;2.30;2.10;;;;;;;;;;4899947;29;20389;-67
2023/12/29 04:41:14;;;;;;;2.40;2.20;;;;;;;;;;4916920;29;20496;-67
2023/12/29 04:43:40;;;;;;;3.15;2.05;;;;;;;;;;4916930;29;20035;-66
2023/12/29 04:46:05;;;;;;;2.55;2.30;;;;;;;;;;4916114;29;20095;-67
2023/12/29 04:48:31;;;;;;;2.30;2.10;;;;;;;;;;4916838;29;20160;-67
2023/12/29 04:50:57;;;;;;;2.30;2.10;;;;;;;;;;4916807;29;20035;-67
2023/12/29 04:53:22;;;;;;;2.85;2.10;;;;;;;;;;4916795;29;20024;-67
2023/12/29 04:55:48;;;;;;;2.58;2.30;;;;;;;;;;4916780;29;20434;-67
2023/12/29 04:58:13;;;;;;;2.92;2.28;;;;;;;;;;4916648;29;20032;-67
2023/12/29 05:00:39;;;;;;;2.63;2.13;;;;;;;;;;4916699;29;20028;-67
2023/12/29 05:03:05;;;;;;;2.33;2.13;;;;;;;;;;4916578;29;20572;-67
2023/12/29 05:05:31;;;;;;;2.13;2.00;;;;;;;;;;4916907;29;20024;-67
2023/12/29 05:07:57;;;;;;;2.20;2.00;;;;;;;;;;4916491;29;20446;-67
2023/12/29 05:10:22;;;;;;;2.20;2.00;;;;;;;;;;4916560;29;20032;-67
2023/12/29 05:12:48;;;;;;;2.90;2.20;;;;;;;;;;4916502;29;20035;-66
2023/12/29 05:15:13;;;;;;;2.20;2.00;;;;;;;;;;4899747;29;20091;-66
2023/12/29 05:17:39;;;;;;;2.42;2.20;;;;;;;;;;4916345;29;20038;-66
2023/12/29 05:20:06;;;;;;;2.30;2.10;;;;;;;;;;4916793;29;20534;-67
2023/12/29 05:22:32;;;;;;;2.30;2.10;;;;;;;;;;4916326;29;20039;-66
2023/12/29 05:24:59;;;;;;;2.35;2.15;;;;;;;;;;4916353;29;20028;-67
2023/12/29 05:27:26;;;;;;;2.75;2.22;;;;;;;;;;4916700;29;20028;-66
2023/12/29 05:29:51;;;;;;;2.40;2.20;;;;;;;;;;4916256;29;20036;-67
2023/12/29 05:32:17;;;;;;;2.15;1.95;;;;;;;;;;4916287;29;20031;-67
2023/12/29 05:34:43;;;;;;;3.10;2.15;;;;;;;;;;4916269;29;20024;-67
2023/12/29 05:37:08;;;;;;;2.65;2.10;;;;;;;;;;4916441;29;20446;-66
2023/12/29 05:39:34;;;;;;;2.30;2.10;;;;;;;;;;4916457;29;20063;-67
2023/12/29 05:41:59;;;;;;;2.20;2.10;;;;;;;;;;4916222;29;20438;-66
2023/12/29 05:44:25;;;;;;;2.40;2.13;;;;;;;;;;4916452;29;20032;-67
2023/12/29 05:46:51;;;;;;;2.70;2.05;;;;;;;;;;4916225;29;20367;-66
2023/12/29 05:49:16;;;;;;;2.20;2.00;;;;;;;;;;4916113;29;20025;-66
2023/12/29 05:51:44;;;;;;;2.10;2.00;;;;;;;;;;4916078;29;20028;-66
2023/12/29 05:54:09;;;;;;;2.40;2.10;;;;;;;;;;4916365;29;20070;-66
2023/12/29 05:56:35;;;;;;;2.40;2.20;;;;;;;;;;4917728;29;20060;-67
2023/12/29 05:59:00;;;;;;;2.50;2.10;;;;;;;;;;4920024;29;20036;-66
2023/12/29 06:01:26;;;;;;;2.67;2.10;;;;;;;;;;4920200;29;20358;-68
2023/12/29 06:03:51;;;;;;;2.15;1.95;;;;;;;;;;4919767;29;20392;-68
2023/12/29 06:06:17;;;;;;;2.33;2.10;;;;;;;;;;4919780;29;20118;-68
2023/12/29 06:08:43;;;;;;;2.40;2.17;;;;;;;;;;4919670;29;20048;-68
2023/12/29 06:11:08;;;;;;;2.30;1.85;;;;;;;;;;4919637;29;20020;-68
2023/12/29 06:13:34;;;;;;;2.42;2.03;;;;;;;;;;4919621;29;20036;-68
2023/12/29 06:15:59;;;;;;;2.40;2.20;;;;;;;;;;4919826;29;20032;-68
2023/12/29 06:18:25;;;;;;;2.28;1.88;;;;;;;;;;4919749;29;20036;-68
2023/12/29 06:20:50;;;;;;;2.25;2.05;;;;;;;;;;4919288;29;20044;-68
2023/12/29 06:23:17;;;;;;;2.92;2.03;;;;;;;;;;4919465;29;20020;-68
2023/12/29 06:25:42;;;;;;;2.03;1.92;;;;;;;;;;4919335;29;20055;-67
2023/12/29 06:28:08;;;;;;;2.78;2.03;;;;;;;;;;4919343;29;20067;-67
2023/12/29 06:30:34;;;;;;;2.08;1.90;;;;;;;;;;4919330;29;20028;-67
2023/12/29 06:32:59;;;;;;;2.60;2.10;;;;;;;;;;4919251;29;20031;-66
2023/12/29 06:35:25;;;;;;;2.15;1.95;;;;;;;;;;4919272;29;20028;-67
2023/12/29 06:37:50;;;;;;;2.38;2.10;;;;;;;;;;4919088;29;20065;-67
2023/12/29 06:40:17;;;;;;;2.15;1.90;;;;;;;;;;4919166;29;20111;-67
2023/12/29 06:42:43;;;;;;;2.60;2.22;;;;;;;;;;4919379;29;20038;-67
2023/12/29 06:45:09;;;;;;;2.47;2.08;;;;;;;;;;4919081;29;20039;-67
2023/12/29 06:47:35;;;;;;;2.35;2.15;;;;;;;;;;4919237;29;20381;-67
2023/12/29 06:50:02;;;;;;;2.40;2.20;;;;;;;;;;4919001;29;20035;-66
2023/12/29 06:52:30;;;;;;;2.47;2.25;;;;;;;;;;4918983;29;20024;-67
2023/12/29 06:54:55;;;;;;;2.78;2.38;;;;;;;;;;4913010;29;20032;-71
2023/12/29 06:57:21;;;;;;;2.70;2.50;;;;;;;;;;4899863;29;20028;-66
2023/12/29 06:59:46;;;;;;;2.80;2.47;;;;;;;;;;4899860;29;20029;-66
2023/12/29 07:02:12;;;;;;;3.72;2.55;;;;;;;;;;4906837;29;20032;-66
2023/12/29 07:04:41;;;;;;;3.22;2.70;;;;;;;;;;4917425;29;20119;-70
2023/12/29 07:07:07;;;;;;;3.10;2.33;;;;;;;;;;4900249;29;20036;-70
2023/12/29 07:09:32;;;;;;;2.90;2.40;;;;;;;;;;4917963;29;20040;-66
2023/12/29 07:11:58;;;;;;;8.77;2.30;;;;;;;;;;4918459;29;20028;-67
2023/12/29 07:14:23;;;;;;;5.10;2.40;;;;;;;;;;4918398;29;20039;-68
2023/12/29 07:16:49;;;;;;;3.17;2.42;;;;;;;;;;4913835;29;20035;-67
2023/12/29 07:19:14;;;;;;;4.97;3.03;;;;;;;;;;4914971;29;20730;-69
2023/12/29 07:21:40;;;;;;;5.65;3.03;;;;;;;;;;4899309;29;20080;-67
2023/12/29 07:24:05;;;;;;;6.15;2.90;;;;;;;;;;4898218;29;20035;-66
2023/12/29 07:26:34;;;;;;;3.30;2.42;;;;;;;;;;4897765;29;20025;-66
2023/12/29 07:28:59;;;;;;;3.20;2.55;;;;;;;;;;4898903;29;20128;-67
2023/12/29 07:31:25;;;;;;;4.93;2.40;;;;;;;;;;4898891;29;20112;-66
2023/12/29 07:33:51;;;;;;;10.50;2.65;;;;;;;;;;4899432;29;20035;-67
2023/12/29 07:36:16;;;;;;;4.15;2.50;;;;;;;;;;4882325;29;20482;-68
2023/12/29 07:38:42;;;;;;;5.95;2.67;;;;;;;;;;4914942;29;20035;-73
2023/12/29 07:41:08;;;;;;;7.28;3.30;;;;;;;;;;4917736;29;20032;-66
2023/12/29 07:43:35;;;;;;;9.55;7.72;;;;;;;;;;4916491;29;20544;-67
2023/12/29 07:46:01;;;;;;;17.73;13.25;;;;;;;;;;4918183;29;20032;-67
2023/12/29 07:48:27;;;;;;;15.00;8.75;;;;;;;;;;4916397;29;20111;-67
2023/12/29 07:50:53;;;;;;;12.02;6.40;;;;;;;;;;4916469;29;20509;-67
2023/12/29 07:53:18;;;;;;;138.40;12.00;;;;;;;;;;4917679;29;20050;-67
2023/12/29 07:55:46;;;;;;;384.02;33.83;;;;;;;;;;4917974;29;20032;-67
2023/12/29 07:58:12;;;;;;;70.97;8.20;;;;;;;;;;4915186;29;20058;-68
2023/12/29 08:00:37;;;;;;;66.03;31.23;;;;;;;;;;4917464;29;20397;-67
2023/12/29 08:03:03;;;;;;;38.33;9.02;;;;;;;;;;4911852;29;20028;-70
2023/12/29 08:05:29;;;;;;;24.52;7.53;;;;;;;;;;4898758;29;20033;-71
2023/12/29 08:07:54;;;;;;;39.08;5.82;;;;;;;;;;4898875;29;20501;-67
2023/12/29 08:10:20;;;;;;;18.15;5.75;;;;;;;;;;4881802;29;20037;-67
2023/12/29 08:12:46;;;;;;;24.90;7.13;;;;;;;;;;4898659;29;20032;-66
2023/12/29 08:15:11;;;;;;;18.42;5.90;;;;;;;;;;4898706;29;20037;-67
2023/12/29 08:17:38;;;;;;;15.52;5.30;;;;;;;;;;4898630;29;20028;-66
2023/12/29 08:20:04;;;;;;;12.15;4.97;;;;;;;;;;4898382;29;20020;-66
2023/12/29 08:22:30;;;;;;;12.30;4.45;;;;;;;;;;4900938;29;20043;-68
2023/12/29 08:24:56;;;;;;;16.73;4.45;;;;;;;;;;4916886;29;20040;-67
2023/12/29 08:27:27;;;;;;;11.10;4.70;;;;;;;;;;4917185;29;20035;-72
2023/12/29 08:29:53;;;;;;;13.93;4.35;;;;;;;;;;4917378;29;20139;-70
2023/12/29 08:32:19;;;;;;;11.27;3.50;;;;;;;;;;4917599;29;20028;-68
2023/12/29 08:34:45;;;;;;;10.25;4.47;;;;;;;;;;4901616;29;20033;-68
2023/12/29 08:37:10;;;;;;;14.27;4.55;;;;;;;;;;4898440;29;20029;-71
2023/12/29 08:39:36;;;;;;;11.05;4.28;;;;;;;;;;4898026;29;20032;-69
2023/12/29 08:42:01;;;;;;;11.77;4.40;;;;;;;;;;4898314;29;20060;-70
2023/12/29 08:44:27;;;;;;;19.02;5.78;;;;;;;;;;4881676;29;20509;-69
2023/12/29 08:46:53;;;;;;;12.70;4.38;;;;;;;;;;4910578;29;20032;-72
2023/12/29 08:49:18;;;;;;;9.25;3.65;;;;;;;;;;4918410;29;20473;-73
2023/12/29 08:51:44;;;;;;;15.57;3.78;;;;;;;;;;4917179;29;20024;-72
2023/12/29 08:54:09;;;;;;;6.20;3.58;;;;;;;;;;4899858;29;20040;-74
2023/12/29 08:56:35;;;;;;;7.65;3.25;;;;;;;;;;4916911;29;20068;-72
2023/12/29 08:59:00;;;;;;;8.50;3.13;;;;;;;;;;4916721;29;20036;-71
2023/12/29 09:01:26;;;;;;;16.48;4.00;;;;;;;;;;4916821;29;20043;-71
2023/12/29 09:03:52;;;;;;;6.95;3.10;;;;;;;;;;4899705;29;20409;-75
2023/12/29 09:06:17;;;;;;;7.07;3.30;;;;;;;;;;4916698;29;20024;-76
2023/12/29 09:08:43;;;;;;;16.70;3.67;;;;;;;;;;4915143;29;20036;-74
2023/12/29 09:11:08;;;;;;;11.07;3.47;;;;;;;;;;4902620;29;20024;-75
2023/12/29 09:13:34;;;;;;;14.43;4.22;;;;;;;;;;4916510;29;20410;-74
2023/12/29 09:15:59;;;;;;;10.30;3.90;;;;;;;;;;4914757;29;20123;-72
2023/12/29 09:18:25;;;;;;;7.55;3.45;;;;;;;;;;4916271;29;20024;-72
2023/12/29 09:20:50;;;;;;;13.75;3.38;;;;;;;;;;4915462;29;20063;-72
2023/12/29 09:23:16;;;;;;;8.52;3.30;;;;;;;;;;4898520;29;20393;-75
2023/12/29 09:25:42;;;;;;;9.55;3.67;;;;;;;;;;4915196;29;20042;-72
2023/12/29 09:28:07;;;;;;;5.53;3.40;;;;;;;;;;4914520;29;20656;-73
2023/12/29 09:30:33;;;;;;;4.50;3.15;;;;;;;;;;4896900;29;20032;-73
2023/12/29 09:32:58;;;;;;;8.38;3.33;;;;;;;;;;4915162;29;20473;-72
2023/12/29 09:35:24;;;;;;;5.15;3.28;;;;;;;;;;4915140;29;20032;-72
2023/12/29 09:37:50;;;;;;;6.50;3.22;;;;;;;;;;4915953;29;20358;-72
2023/12/29 09:40:16;;;;;;;7.95;3.38;;;;;;;;;;4916193;29;20028;-72
2023/12/29 09:42:44;;;;;;;5.82;3.03;;;;;;;;;;4916208;29;20032;-72
2023/12/29 09:45:11;;;;;;;4.72;2.75;;;;;;;;;;4907781;29;20502;-73
2023/12/29 09:47:41;;;;;;;4.13;2.75;;;;;;;;;;4897435;29;20509;-73
2023/12/29 09:50:13;;;;;;;5.13;2.70;;;;;;;;;;4915349;29;20493;-72
2023/12/29 09:52:39;;;;;;;4.80;2.80;;;;;;;;;;4915980;29;20071;-72
2023/12/29 09:55:09;;;;;;;9.25;2.80;;;;;;;;;;4916115;29;20029;-72
2023/12/29 09:57:35;;;;;;;10.45;3.15;;;;;;;;;;4916283;29;20024;-71
2023/12/29 10:00:02;;;;;;;9.82;3.83;;;;;;;;;;4915975;29;20032;-71
2023/12/29 10:02:28;;;;;;;11.10;3.10;;;;;;;;;;4916114;29;20434;-71
2023/12/29 10:04:54;;;;;;;9.90;3.00;;;;;;;;;;4915966;29;20032;-71
2023/12/29 10:07:38;;;;;;;7.00;3.08;;;;;;;;;;4915979;29;20039;-71
2023/12/29 10:10:04;;;;;;;8.43;3.40;;;;;;;;;;4916229;29;20028;-71
2023/12/29 10:12:31;;;;;;;7.45;3.20;;;;;;;;;;4898840;29;20036;-72
2023/12/29 10:15:42;;;;;;;4.38;3.05;;;;;;;;;;4913066;29;20496;-72
2023/12/29 10:18:19;;;;;;;8.45;4.45;;;;;;;;;;4820888;29;20091;-70
2023/12/29 10:21:07;;;;;;;8.13;3.88;;;;;;;;;;4805108;29;20443;-70
2023/12/29 10:23:43;;;;;;;11.02;4.38;;;;;;;;;;4863310;29;20041;-70
2023/12/29 10:26:11;;;;;;;7.57;3.67;;;;;;;;;;4876813;29;20029;-71
2023/12/29 10:28:36;;;;;;;10.82;4.03;;;;;;;;;;4877343;29;20033;-70
2023/12/29 10:31:04;;;;;;;11.65;3.67;;;;;;;;;;4877271;29;20395;-70
2023/12/29 10:33:32;;;;;;;6.30;3.83;;;;;;;;;;4878042;29;20115;-70
2023/12/29 10:36:03;;;;;;;7.72;3.53;;;;;;;;;;4877893;29;20029;-70
2023/12/29 10:38:31;;;;;;;13.00;3.78;;;;;;;;;;4878083;29;20061;-70
2023/12/29 10:41:14;;;;;;;8.20;4.00;;;;;;;;;;4878154;29;20033;-71
2023/12/29 10:43:47;;;;;;;13.60;3.97;;;;;;;;;;4878048;29;20033;-70
2023/12/29 10:46:12;;;;;;;6.28;3.50;;;;;;;;;;4881709;29;20032;-70
2023/12/29 10:48:39;;;;;;;6.20;3.42;;;;;;;;;;4881409;29;20383;-71
2023/12/29 10:51:05;;;;;;;6.35;3.80;;;;;;;;;;4881651;29;20157;-70
2023/12/29 10:53:35;;;;;;;10.32;3.60;;;;;;;;;;4881328;29;20033;-71
2023/12/29 10:56:01;;;;;;;7.25;3.35;;;;;;;;;;4881235;29;20474;-71
2023/12/29 10:58:29;;;;;;;5.88;3.28;;;;;;;;;;4881179;29;20048;-71
2023/12/29 11:00:59;;;;;;;6.65;4.07;;;;;;;;;;4881509;29;20026;-70
2023/12/29 11:03:25;;;;;;;6.28;3.50;;;;;;;;;;4881120;29;20053;-70
2023/12/29 11:06:00;;;;;;;7.55;3.53;;;;;;;;;;4881088;29;20104;-70
2023/12/29 11:08:25;;;;;;;6.05;3.72;;;;;;;;;;4881137;29;20040;-71
2023/12/29 11:10:51;;;;;;;8.10;3.83;;;;;;;;;;4880997;29;20025;-70
2023/12/29 11:13:16;;;;;;;8.00;3.40;;;;;;;;;;4881016;29;20021;-70
2023/12/29 11:15:45;;;;;;;6.53;3.50;;;;;;;;;;4881257;29;20062;-71
2023/12/29 11:18:13;;;;;;;4.80;3.47;;;;;;;;;;4880769;29;20108;-70
2023/12/29 11:20:40;;;;;;;4.72;3.58;;;;;;;;;;4886713;29;20522;-70
2023/12/29 11:23:13;;;;;;;6.97;4.20;;;;;;;;;;4899769;29;20029;-71
2023/12/29 11:25:39;;;;;;;5.80;3.47;;;;;;;;;;4899512;29;20032;-70
2023/12/29 11:28:08;;;;;;;6.55;3.67;;;;;;;;;;4899679;29;20036;-70
2023/12/29 11:30:34;;;;;;;6.15;3.75;;;;;;;;;;4899409;29;20389;-70
2023/12/29 11:33:05;;;;;;;4.43;3.65;;;;;;;;;;4899226;29;20111;-70
2023/12/29 11:35:33;;;;;;;6.68;3.90;;;;;;;;;;4899378;29;20028;-70
2023/12/29 11:38:18;;;;;;;4.43;3.50;;;;;;;;;;4899276;29;20017;-70
2023/12/29 11:40:52;;;;;;;6.25;3.97;;;;;;;;;;4899138;29;20084;-70
2023/12/29 11:43:18;;;;;;;6.30;4.00;;;;;;;;;;4899155;29;20556;-71
2023/12/29 11:45:44;;;;;;;5.13;3.53;;;;;;;;;;4899316;29;20107;-70
2023/12/29 11:48:11;;;;;;;7.72;3.75;;;;;;;;;;4899055;29;20041;-70
2023/12/29 11:50:42;;;;;;;5.53;3.80;;;;;;;;;;4899071;29;20474;-70
2023/12/29 11:53:08;;;;;;;7.82;3.80;;;;;;;;;;4899036;29;20028;-70
2023/12/29 11:55:36;;;;;;;5.15;3.70;;;;;;;;;;4898536;29;20074;-70
2023/12/29 11:58:04;;;;;;;5.82;4.03;;;;;;;;;;4898792;29;20029;-70
2023/12/29 12:00:46;;;;;;;5.57;3.55;;;;;;;;;;4899015;29;20162;-70
2023/12/29 12:03:24;;;;;;;4.55;3.42;;;;;;;;;;4899007;29;20032;-70
2023/12/29 12:05:50;;;;;;;5.55;3.60;;;;;;;;;;4898735;29;20029;-70
2023/12/29 12:08:29;;;;;;;4.88;3.60;;;;;;;;;;4898671;29;20028;-71
2023/12/29 12:10:56;;;;;;;4.18;3.42;;;;;;;;;;4898663;29;20036;-70
2023/12/29 12:13:47;;;;;;;4.70;3.65;;;;;;;;;;4898417;29;20044;-70
2023/12/29 12:16:47;;;;;;;4.18;3.40;;;;;;;;;;4898426;29;20162;-70
2023/12/29 12:19:13;;;;;;;6.53;4.20;;;;;;;;;;4898424;29;20036;-71
2023/12/29 12:21:40;;;;;;;5.55;3.47;;;;;;;;;;4898175;29;20048;-71
2023/12/29 12:24:06;;;;;;;5.32;3.83;;;;;;;;;;4898337;29;20392;-70
2023/12/29 12:26:32;;;;;;;4.70;3.65;;;;;;;;;;4898341;29;20131;-69
2023/12/29 12:28:58;;;;;;;6.28;3.63;;;;;;;;;;4898170;29;20103;-72
2023/12/29 12:31:24;;;;;;;6.15;3.60;;;;;;;;;;4898275;29;20393;-72
2023/12/29 12:34:02;;;;;;;4.72;3.50;;;;;;;;;;4898389;29;20044;-71
2023/12/29 12:36:28;;;;;;;4.78;3.45;;;;;;;;;;4898137;29;20025;-70
2023/12/29 12:38:58;;;;;;;9.45;3.80;;;;;;;;;;4897994;29;20390;-70
2023/12/29 12:41:25;;;;;;;11.93;4.13;;;;;;;;;;4898063;29;20621;-71
2023/12/29 12:44:03;;;;;;;8.25;4.30;;;;;;;;;;4897964;29;20474;-72
2023/12/29 12:46:33;;;;;;;6.60;4.00;;;;;;;;;;4897825;29;20033;-70
2023/12/29 12:48:59;;;;;;;7.45;4.82;;;;;;;;;;4897674;29;20378;-70
2023/12/29 12:51:25;;;;;;;7.18;3.60;;;;;;;;;;4898138;29;20025;-70
2023/12/29 12:53:52;;;;;;;6.60;4.00;;;;;;;;;;4897878;29;20478;-70
2023/12/29 12:56:19;;;;;;;7.25;3.88;;;;;;;;;;4898077;29;20056;-70
2023/12/29 12:58:45;;;;;;;10.55;3.80;;;;;;;;;;4897638;29;20036;-70
2023/12/29 13:01:12;;;;;;;5.80;3.55;;;;;;;;;;4898006;29;20028;-70
2023/12/29 13:03:39;;;;;;;7.90;3.70;;;;;;;;;;4897983;29;20205;-70
2023/12/29 13:06:05;;;;;;;4.53;3.60;;;;;;;;;;4897268;29;20032;-70
2023/12/29 13:08:32;;;;;;;5.43;3.85;;;;;;;;;;4897915;29;20382;-70
2023/12/29 13:11:00;;;;;;;5.75;3.50;;;;;;;;;;4897598;29;20490;-70
2023/12/29 13:13:46;;;;;;;7.07;4.22;;;;;;;;;;4897817;29;20054;-71
2023/12/29 13:16:13;;;;;;;6.45;3.90;;;;;;;;;;4897304;29;20040;-70
2023/12/29 13:18:39;;;;;;;8.02;3.70;;;;;;;;;;4897419;29;20038;-70
2023/12/29 13:21:06;;;;;;;6.32;3.30;;;;;;;;;;4897418;29;20067;-70
2023/12/29 13:23:32;;;;;;;3.97;3.55;;;;;;;;;;4897505;29;20021;-71
2023/12/29 13:26:05;;;;;;;6.93;3.80;;;;;;;;;;4897394;29;20059;-71
2023/12/29 13:28:32;;;;;;;5.20;3.63;;;;;;;;;;4897722;29;20076;-71
2023/12/29 13:30:58;;;;;;;5.60;4.30;;;;;;;;;;4897648;29;20379;-70
2023/12/29 13:33:36;;;;;;;5.45;3.63;;;;;;;;;;4897325;29;20088;-70
2023/12/29 13:36:36;;;;;;;5.95;3.95;;;;;;;;;;4897479;29;20144;-70
2023/12/29 13:39:21;;;;;;;7.22;3.83;;;;;;;;;;4886933;29;20051;-70
2023/12/29 13:41:47;;;;;;;4.22;3.60;;;;;;;;;;4897399;29;20084;-70
2023/12/29 13:44:13;;;;;;;6.07;3.78;;;;;;;;;;4897259;29;20032;-70
2023/12/29 13:46:39;;;;;;;5.90;3.90;;;;;;;;;;4897297;29;20072;-69
2023/12/29 13:49:06;;;;;;;4.93;4.05;;;;;;;;;;4897535;29;20127;-69
2023/12/29 13:51:31;;;;;;;6.88;4.35;;;;;;;;;;4897252;29;20474;-70
2023/12/29 13:54:00;;;;;;;5.15;3.92;;;;;;;;;;4897170;29;20035;-69
2023/12/29 13:56:26;;;;;;;4.65;3.85;;;;;;;;;;4897454;29;20029;-70
2023/12/29 13:58:52;;;;;;;5.70;4.25;;;;;;;;;;4898000;29;20029;-70
2023/12/29 14:01:18;;;;;;;5.85;3.60;;;;;;;;;;4897047;29;20029;-69
2023/12/29 14:03:50;;;;;;;5.22;3.97;;;;;;;;;;4897109;29;20061;-69
2023/12/29 14:06:53;;;;;;;6.18;3.83;;;;;;;;;;4897120;29;20044;-69
2023/12/29 14:09:19;;;;;;;6.07;3.75;;;;;;;;;;4839028;29;20050;-69
2023/12/29 14:11:48;;;;;;;5.40;4.03;;;;;;;;;;4886089;29;20048;-68
2023/12/29 14:14:14;;;;;;;5.37;4.03;;;;;;;;;;4897291;29;20088;-69
2023/12/29 14:16:40;;;;;;;4.45;3.90;;;;;;;;;;4896972;29;20481;-69
2023/12/29 14:19:06;;;;;;;5.68;4.20;;;;;;;;;;4900457;29;20032;-68
2023/12/29 14:21:33;;;;;;;6.95;4.13;;;;;;;;;;4901090;29;20043;-70
2023/12/29 14:24:02;;;;;;;6.32;4.35;;;;;;;;;;4900492;29;20533;-70
2023/12/29 14:26:27;;;;;;;4.93;3.50;;;;;;;;;;4900605;29;20024;-69
2023/12/29 14:29:01;;;;;;;7.32;4.28;;;;;;;;;;4900498;29;20020;-69
2023/12/29 14:31:26;;;;;;;5.63;4.03;;;;;;;;;;4900452;29;20028;-69
2023/12/29 14:33:52;;;;;;;4.30;3.67;;;;;;;;;;4900427;29;20029;-69
2023/12/29 14:36:17;;;;;;;4.32;3.70;;;;;;;;;;4900369;29;20111;-68
2023/12/29 14:38:43;;;;;;;7.35;4.25;;;;;;;;;;4900588;29;20033;-69
2023/12/29 14:41:08;;;;;;;4.75;3.88;;;;;;;;;;4900291;29;20036;-68